createdAt,value
2018-10-07T00:01:28.697Z,99500.25
2018-10-07T00:06:31.967Z,99499.13
2018-10-07T00:11:35.276Z,99499.47
2018-10-07T00:16:38.541Z,99502.95
2018-10-07T00:21:41.821Z,99496.34
2018-10-07T00:26:45.085Z,99488.89
2018-10-07T00:31:53.754Z,99496.48
2018-10-07T00:36:57.053Z,99494.14
2018-10-07T00:42:00.309Z,99503.86
2018-10-07T00:47:03.585Z,99506.95
2018-10-07T00:52:06.924Z,99504.64
2018-10-07T00:57:10.196Z,99503.25
2018-10-07T01:02:13.464Z,99511.84
2018-10-07T01:07:16.719Z,99511.68
2018-10-07T01:12:19.987Z,99505.69
2018-10-07T01:17:23.245Z,99501.35
2018-10-07T01:22:26.506Z,99499.63
2018-10-07T01:27:29.763Z,99502.30
2018-10-07T01:32:33.038Z,99499.92
2018-10-07T01:37:36.305Z,99505.00
2018-10-07T01:42:39.569Z,99506.52
2018-10-07T01:47:42.860Z,99512.45
2018-10-07T01:52:46.124Z,99521.39
2018-10-07T01:57:49.388Z,99523.01
2018-10-07T02:02:52.677Z,99521.18
2018-10-07T02:07:56.093Z,99519.97
2018-10-07T02:12:59.389Z,99523.69
2018-10-07T02:18:03.049Z,99521.95
2018-10-07T02:23:06.684Z,99530.38
2018-10-07T02:28:09.976Z,99533.94
2018-10-07T02:33:13.299Z,99541.49
2018-10-07T02:38:16.590Z,99538.72
2018-10-07T02:43:19.901Z,99540.72
2018-10-07T02:48:23.216Z,99541.66
2018-10-07T02:53:26.687Z,99542.56
2018-10-07T02:58:29.921Z,99548.73
2018-10-07T03:03:33.208Z,99553.06
2018-10-07T03:08:36.508Z,99558.10
2018-10-07T03:13:39.849Z,99555.59
2018-10-07T03:18:43.132Z,99550.21
2018-10-07T03:23:47.455Z,99558.37
2018-10-07T03:28:50.744Z,99560.36
2018-10-07T03:33:54.034Z,99555.16
2018-10-07T03:38:57.432Z,99563.92
2018-10-07T03:44:00.749Z,99572.16
2018-10-07T03:49:04.051Z,99573.93
2018-10-07T03:54:07.335Z,99575.49
2018-10-07T03:59:10.636Z,99580.27
2018-10-07T04:04:13.924Z,99584.08
2018-10-07T04:09:17.236Z,99590.41
2018-10-07T04:14:20.532Z,99605.95
2018-10-07T04:19:23.821Z,99602.22
2018-10-07T04:24:28.979Z,99619.95
2018-10-07T04:29:32.269Z,99627.37
2018-10-07T04:34:35.561Z,99633.62
2018-10-07T04:39:38.871Z,99631.66
2018-10-07T04:44:42.155Z,99642.41
2018-10-07T04:49:45.436Z,99647.36
2018-10-07T04:54:48.732Z,99657.56
2018-10-07T04:59:52.012Z,99658.95
2018-10-07T05:04:55.337Z,99668.00
2018-10-07T05:10:10.067Z,99673.98
2018-10-07T05:15:13.368Z,99676.58
2018-10-07T05:20:16.668Z,99694.55
2018-10-07T05:25:19.952Z,99710.96
2018-10-07T05:30:23.241Z,99712.97
2018-10-07T05:35:26.535Z,99731.53
2018-10-07T05:40:29.840Z,99734.48
2018-10-07T05:45:33.134Z,99736.98
2018-10-07T05:50:36.476Z,99743.77
2018-10-07T05:55:39.752Z,99761.20
2018-10-07T06:00:43.069Z,99774.70
2018-10-07T06:05:46.537Z,99790.64
2018-10-07T06:10:49.795Z,99805.21
2018-10-07T06:15:53.066Z,99799.06
2018-10-07T06:20:56.344Z,99799.06
2018-10-07T06:26:00.168Z,99805.28
2018-10-07T06:31:03.404Z,99818.98
2018-10-07T06:36:06.684Z,99835.08
2018-10-07T06:41:09.953Z,99859.85
2018-10-07T06:46:13.227Z,99886.80
2018-10-07T06:51:16.499Z,99903.61
2018-10-07T06:56:19.769Z,99917.80
2018-10-07T07:01:23.028Z,99922.33
2018-10-07T07:06:26.352Z,99928.66
2018-10-07T07:11:29.788Z,99925.42
2018-10-07T07:16:33.289Z,99916.06
2018-10-07T07:21:36.560Z,99925.61
2018-10-07T07:26:39.837Z,99944.12
2018-10-07T07:31:43.096Z,99966.83
2018-10-07T07:36:46.405Z,99978.88
2018-10-07T07:41:49.692Z,99980.36
2018-10-07T07:46:52.959Z,100000.98
2018-10-07T07:51:56.229Z,100011.85
2018-10-07T07:56:59.504Z,100024.06
2018-10-07T08:02:02.776Z,100031.36
2018-10-07T08:07:06.072Z,100044.69
2018-10-07T08:12:09.348Z,100051.12
2018-10-07T08:17:12.766Z,100051.66
2018-10-07T08:22:16.104Z,100072.23
2018-10-07T08:27:19.371Z,100077.33
2018-10-07T08:32:22.652Z,100089.55
2018-10-07T08:37:25.936Z,100098.60
2018-10-07T08:42:29.267Z,100099.98
2018-10-07T08:47:32.540Z,100112.80
2018-10-07T08:52:35.816Z,100116.36
2018-10-07T08:57:39.093Z,100125.34
2018-10-07T09:02:42.384Z,100132.22
2018-10-07T09:07:45.739Z,100147.48
2018-10-07T09:12:49.037Z,100159.10
2018-10-07T09:17:52.416Z,100159.91
2018-10-07T09:22:55.688Z,100170.55
2018-10-07T09:27:59.592Z,100176.70
2018-10-07T09:33:02.857Z,100193.22
2018-10-07T09:38:06.214Z,100192.86
2018-10-07T09:43:09.504Z,100200.31
2018-10-07T09:48:12.812Z,100210.52
2018-10-07T10:33:44.724Z,100264.13
2018-10-07T10:39:06.080Z,100278.94
2018-10-07T10:44:23.825Z,100281.16
2018-10-07T10:49:31.192Z,100272.41
2018-10-07T10:54:45.086Z,100283.30
2018-10-07T10:59:55.957Z,100285.97
2018-10-07T11:05:10.220Z,100290.67
2018-10-07T11:10:22.853Z,100297.98
2018-10-07T11:15:32.648Z,100306.42
2018-10-07T11:22:49.380Z,100314.03
2018-10-07T11:27:59.219Z,100328.99
2018-10-07T11:33:13.500Z,100335.34
2018-10-07T11:38:26.097Z,100333.95
2018-10-07T11:43:42.104Z,100340.70
2018-10-07T11:48:51.544Z,100352.01
2018-10-07T11:53:58.796Z,100350.33
2018-10-07T11:59:02.340Z,100358.25
2018-10-07T12:04:05.627Z,100362.00
2018-10-07T12:09:09.056Z,100375.76
2018-10-07T12:14:12.428Z,100378.91
2018-10-07T12:19:15.982Z,100388.67
2018-10-07T12:24:19.288Z,100392.51
2018-10-07T12:29:23.836Z,100394.08
2018-10-07T12:34:27.180Z,100400.34
2018-10-07T12:39:30.599Z,100405.42
2018-10-07T12:44:33.912Z,100407.70
2018-10-07T12:49:37.204Z,100415.52
2018-10-07T12:54:40.489Z,100423.48
2018-10-07T12:59:43.764Z,100436.22
2018-10-07T13:04:47.036Z,100441.36
2018-10-07T13:09:50.312Z,100439.92
2018-10-07T13:14:53.581Z,100450.58
2018-10-07T13:19:56.885Z,100467.13
2018-10-07T13:25:00.177Z,100465.33
2018-10-07T13:30:05.604Z,100464.31
2018-10-07T13:35:08.882Z,100472.45
2018-10-07T13:40:13.041Z,100470.34
2018-10-07T13:45:16.432Z,100480.80
2018-10-07T13:50:19.709Z,100488.94
2018-10-07T13:55:22.972Z,100486.35
2018-10-07T14:00:26.250Z,100495.12
2018-10-07T14:05:29.524Z,100505.58
2018-10-07T14:10:32.809Z,100503.77
2018-10-07T14:15:36.100Z,100506.28
2018-10-07T14:20:39.364Z,100513.90
2018-10-07T14:25:42.650Z,100521.20
2018-10-07T14:30:45.916Z,100528.66
2018-10-07T14:35:49.169Z,100529.30
2018-10-07T14:40:52.423Z,100533.89
2018-10-07T14:45:55.687Z,100547.90
2018-10-07T14:50:58.977Z,100565.05
2018-10-07T14:56:02.227Z,100573.84
2018-10-07T15:01:05.492Z,100576.02
2018-10-07T15:06:08.754Z,100575.56
2018-10-07T15:11:12.024Z,100580.11
2018-10-07T15:16:15.431Z,100588.86
2018-10-07T15:21:18.699Z,100589.46
2018-10-07T15:26:21.973Z,100589.69
2018-10-07T15:31:25.291Z,100600.61
2018-10-07T15:36:28.733Z,100602.11
2018-10-07T15:41:32.024Z,100596.70
2018-10-07T15:46:35.336Z,100607.25
2018-10-07T15:51:38.624Z,100624.77
2018-10-07T15:56:41.948Z,100626.39
2018-10-07T16:01:45.179Z,100634.16
2018-10-07T16:06:48.436Z,100647.31
2018-10-07T16:11:51.713Z,100650.72
2018-10-07T16:16:54.983Z,100653.87
2018-10-07T16:21:58.236Z,100659.40
2018-10-07T16:27:01.516Z,100661.80
2018-10-07T16:32:04.797Z,100666.69
2018-10-07T16:37:08.082Z,100674.69
2018-10-07T16:42:11.378Z,100691.01
2018-10-07T16:47:19.826Z,100694.86
2018-10-07T16:52:24.493Z,100711.53
2018-10-07T16:57:27.987Z,100717.56
2018-10-07T17:02:31.245Z,100734.04
2018-10-07T17:07:34.509Z,100744.77
2018-10-07T17:12:37.776Z,100752.70
2018-10-07T17:17:41.034Z,100752.29
2018-10-07T17:22:44.299Z,100770.16
2018-10-07T17:27:47.552Z,100775.91
2018-10-07T17:32:50.869Z,100772.02
2018-10-07T17:37:54.509Z,100778.60
2018-10-07T17:42:58.360Z,100789.91
2018-10-07T17:48:02.392Z,100796.72
2018-10-07T17:53:05.849Z,100782.23
2018-10-07T17:58:09.153Z,100797.50
2018-10-07T18:03:12.531Z,100791.10
2018-10-07T18:08:15.793Z,100799.11
2018-10-07T18:13:19.119Z,100801.69
2018-10-07T18:18:22.660Z,100802.22
2018-10-07T18:23:25.916Z,100806.98
2018-10-07T18:28:29.180Z,100820.33
2018-10-07T18:33:32.440Z,100823.30
2018-10-07T18:38:35.700Z,100827.66
2018-10-07T18:43:38.999Z,100844.92
2018-10-07T18:48:42.360Z,100847.45
2018-10-07T18:53:45.622Z,100846.71
2018-10-07T18:58:48.887Z,100850.87
2018-10-07T19:03:52.859Z,100845.73
2018-10-07T19:08:56.147Z,100857.44
2018-10-07T19:13:59.412Z,100857.05
2018-10-07T19:19:02.675Z,100851.67
2018-10-07T19:24:05.992Z,100852.27
2018-10-07T19:29:09.281Z,100851.88
2018-10-07T19:34:13.283Z,100847.53
2018-10-07T19:39:16.809Z,100857.42
2018-10-07T19:44:20.283Z,100863.12
2018-10-07T19:49:23.634Z,100859.52
2018-10-07T19:54:27.000Z,100856.91
2018-10-07T19:59:30.309Z,100859.61
2018-10-07T20:04:33.589Z,100855.69
2018-10-07T20:09:36.846Z,100864.81
2018-10-07T20:14:40.132Z,100860.34
2018-10-07T20:19:43.601Z,100847.81
2018-10-07T20:24:47.217Z,100848.62
2018-10-07T20:29:50.883Z,100848.41
2018-10-07T20:34:54.153Z,100850.42
2018-10-07T20:39:57.412Z,100841.30
2018-10-07T20:45:00.703Z,100852.22
2018-10-07T20:50:03.988Z,100861.73
2018-10-07T20:55:07.277Z,100862.73
2018-10-07T21:00:10.548Z,100857.37
2018-10-07T21:05:13.824Z,100861.75
2018-10-07T21:10:17.413Z,100861.75
2018-10-07T21:15:20.681Z,100870.08
2018-10-07T21:20:23.946Z,100866.38
2018-10-07T21:25:27.207Z,100868.74
2018-10-07T21:30:30.479Z,100870.33
2018-10-07T21:35:33.734Z,100875.16
2018-10-07T21:40:36.982Z,100879.30
2018-10-07T21:45:40.244Z,100870.38
2018-10-07T21:50:43.497Z,100873.15
2018-10-07T21:55:46.751Z,100872.28
2018-10-07T22:00:50.013Z,100866.92
2018-10-07T22:05:53.319Z,100856.80
2018-10-07T22:10:56.608Z,100853.63
2018-10-07T22:15:59.880Z,100856.59
2018-10-07T22:21:03.171Z,100850.37
2018-10-07T22:26:06.661Z,100855.31
2018-10-07T22:31:09.972Z,100849.48
2018-10-07T22:36:13.576Z,100851.23
2018-10-07T22:41:16.899Z,100853.89
2018-10-07T22:46:20.457Z,100860.07
2018-10-07T22:51:23.809Z,100860.84
2018-10-07T22:56:27.105Z,100854.37
2018-10-07T23:01:30.412Z,100849.80
2018-10-07T23:06:34.559Z,100846.45
2018-10-07T23:11:37.964Z,100842.50
2018-10-07T23:16:41.878Z,100841.70
2018-10-07T23:21:45.215Z,100836.99
2018-10-07T23:26:49.646Z,100836.01
2018-10-07T23:31:52.928Z,100830.72
2018-10-07T23:36:56.239Z,100830.67
2018-10-07T23:42:01.396Z,100827.34
2018-10-07T23:47:06.058Z,100832.92
2018-10-07T23:52:09.423Z,100830.94
2018-10-07T23:57:13.234Z,100826.24
